createdAt,value
2018-12-02T00:00:47.941Z,2.77
2018-12-02T00:03:20.348Z,3.50
2018-12-02T00:05:48.632Z,3.17
2018-12-02T00:08:16.855Z,1.57
2018-12-02T00:10:45.076Z,2.53
2018-12-02T00:13:13.364Z,4.13
2018-12-02T00:15:42.059Z,1.90
2018-12-02T00:18:12.713Z,2.30
2018-12-02T00:40:37.713Z,2.70
2018-12-02T00:43:07.784Z,1.17
2018-12-02T00:45:40.092Z,1.83
2018-12-02T00:48:09.206Z,1.10
2018-12-02T00:50:37.782Z,3.00
2018-12-02T00:53:08.321Z,1.37
2018-12-02T00:55:39.037Z,1.40
2018-12-02T00:58:07.341Z,3.53
2018-12-02T01:00:35.548Z,1.67
2018-12-02T01:03:03.868Z,2.10
2018-12-02T01:05:32.093Z,1.80
2018-12-02T01:08:00.307Z,1.60
2018-12-02T01:10:28.561Z,2.37
2018-12-02T01:12:57.687Z,1.70
2018-12-02T01:15:28.024Z,1.20
2018-12-02T01:17:56.216Z,3.13
2018-12-02T01:20:24.639Z,2.10
2018-12-02T01:22:56.103Z,1.33
2018-12-02T01:25:24.363Z,1.10
2018-12-02T01:27:52.575Z,1.10
2018-12-02T01:30:22.045Z,1.60
2018-12-02T01:32:51.100Z,0.97
2018-12-02T01:35:21.423Z,1.50
2018-12-02T01:37:49.685Z,0.87
2018-12-02T01:40:18.910Z,0.87
2018-12-02T01:42:51.130Z,1.03
2018-12-02T01:45:23.981Z,1.20
2018-12-02T01:47:52.911Z,0.80
2018-12-02T01:50:22.016Z,0.80
2018-12-02T01:52:53.074Z,2.30
2018-12-02T01:55:21.307Z,0.87
2018-12-02T01:57:49.532Z,0.90
2018-12-02T02:00:19.590Z,1.50
2018-12-02T02:02:47.944Z,0.60
2018-12-02T02:05:17.388Z,2.57
2018-12-02T02:07:45.612Z,0.60
2018-12-02T02:10:16.720Z,1.70
2018-12-02T02:12:44.945Z,0.63
2018-12-02T02:15:15.220Z,0.80
2018-12-02T02:17:43.456Z,2.63
2018-12-02T02:20:16.398Z,2.13
2018-12-02T02:22:44.792Z,1.07
2018-12-02T02:25:14.081Z,1.20
2018-12-02T02:27:43.494Z,2.50
2018-12-02T02:30:15.891Z,0.40
2018-12-02T02:32:44.120Z,1.00
2018-12-02T02:35:12.523Z,0.57
2018-12-02T02:37:40.972Z,1.43
2018-12-02T02:40:13.391Z,1.07
2018-12-02T02:42:41.591Z,1.77
2018-12-02T02:45:10.931Z,0.40
2018-12-02T02:47:39.196Z,0.77
2018-12-02T02:50:16.001Z,1.17
2018-12-02T02:52:45.585Z,0.63
2018-12-02T02:55:13.807Z,0.60
2018-12-02T02:57:42.046Z,0.77
2018-12-02T03:00:17.160Z,0.80
2018-12-02T03:02:45.378Z,1.03
2018-12-02T03:05:14.229Z,0.90
2018-12-02T03:07:42.448Z,0.97
2018-12-02T03:10:12.865Z,1.87
2018-12-02T03:12:41.126Z,0.80
2018-12-02T03:15:10.736Z,1.13
2018-12-02T03:17:39.055Z,1.37
2018-12-02T03:20:12.318Z,3.77
2018-12-02T03:22:41.062Z,2.23
2018-12-02T03:25:10.725Z,1.90
2018-12-02T03:27:38.928Z,1.50
2018-12-02T03:30:10.542Z,1.63
2018-12-02T03:32:38.861Z,1.70
2018-12-02T03:35:08.417Z,2.33
2018-12-02T03:37:36.613Z,1.90
2018-12-02T03:40:08.465Z,3.93
2018-12-02T03:42:36.659Z,2.63
2018-12-02T03:45:05.209Z,2.43
2018-12-02T03:47:33.393Z,3.43
2018-12-02T03:50:01.600Z,3.17
2018-12-02T03:52:29.800Z,3.07
2018-12-02T03:54:58.010Z,3.63
2018-12-02T03:57:26.196Z,2.07
2018-12-02T03:59:54.384Z,2.43
2018-12-02T04:02:22.596Z,3.80
2018-12-02T04:04:50.800Z,4.20
2018-12-02T04:07:18.997Z,2.80
2018-12-02T04:09:47.220Z,1.80
2018-12-02T04:12:15.440Z,4.53
2018-12-02T04:14:43.672Z,1.17
2018-12-02T04:17:11.887Z,0.83
2018-12-02T04:19:40.104Z,1.77
2018-12-02T04:22:08.311Z,1.50
2018-12-02T04:24:36.583Z,1.63
2018-12-02T04:27:05.064Z,1.60
2018-12-02T04:29:33.264Z,1.50
2018-12-02T04:32:01.517Z,1.50
2018-12-02T04:34:29.741Z,3.23
2018-12-02T04:36:57.935Z,4.07
2018-12-02T04:39:26.138Z,1.37
2018-12-02T04:41:54.344Z,3.07
2018-12-02T04:44:22.539Z,2.97
2018-12-02T04:46:50.831Z,0.80
2018-12-02T04:49:19.054Z,1.07
2018-12-02T04:51:47.268Z,1.70
2018-12-02T04:54:15.572Z,2.33
2018-12-02T04:56:43.777Z,1.27
2018-12-02T04:59:11.973Z,0.63
2018-12-02T05:01:40.172Z,2.10
2018-12-02T05:04:08.389Z,2.03
2018-12-02T05:06:36.582Z,1.20
2018-12-02T05:09:06.568Z,0.73
2018-12-02T05:11:34.783Z,1.07
2018-12-02T05:14:03.190Z,3.73
2018-12-02T05:16:31.460Z,0.73
2018-12-02T05:18:59.653Z,1.20
2018-12-02T05:21:27.856Z,1.07
2018-12-02T05:23:56.053Z,2.27
2018-12-02T05:26:24.264Z,0.83
2018-12-02T05:28:52.470Z,1.70
2018-12-02T05:31:20.696Z,3.13
2018-12-02T05:33:48.875Z,1.07
2018-12-02T05:36:17.096Z,1.07
2018-12-02T05:38:45.284Z,1.40
2018-12-02T05:41:13.494Z,1.87
2018-12-02T05:43:42.171Z,4.77
2018-12-02T05:46:10.357Z,3.63
2018-12-02T05:48:38.577Z,2.37
2018-12-02T05:51:06.797Z,3.77
2018-12-02T05:53:34.984Z,3.47
2018-12-02T05:56:03.201Z,1.20
2018-12-02T05:58:31.416Z,0.70
2018-12-02T06:00:59.628Z,0.60
2018-12-02T06:03:27.820Z,2.00
2018-12-02T06:05:56.026Z,1.50
2018-12-02T06:08:24.215Z,1.17
2018-12-02T06:10:52.501Z,0.43
2018-12-02T06:13:20.675Z,2.40
2018-12-02T06:15:48.883Z,2.43
2018-12-02T06:18:17.087Z,0.80
2018-12-02T06:20:45.277Z,0.57
2018-12-02T06:23:13.475Z,0.60
2018-12-02T06:25:46.451Z,0.20
2018-12-02T06:28:09.851Z,0.80
2018-12-02T06:30:38.069Z,1.03
2018-12-02T06:33:06.881Z,1.53
2018-12-02T06:35:38.601Z,0.53
2018-12-02T06:38:16.689Z,0.47
2018-12-02T06:40:45.101Z,0.53
2018-12-02T06:43:15.408Z,0.33
2018-12-02T06:45:43.774Z,0.80
2018-12-02T06:48:12.003Z,0.73
2018-12-02T06:50:40.246Z,0.53
2018-12-02T06:53:08.532Z,1.30
2018-12-02T06:55:41.299Z,1.63
2018-12-02T06:58:28.344Z,1.77
2018-12-02T07:02:17.449Z,1.53
2018-12-02T07:04:48.811Z,2.17
2018-12-02T07:07:17.032Z,0.93
2018-12-02T07:09:45.236Z,1.47
2018-12-02T07:12:13.452Z,2.53
2018-12-02T07:14:57.635Z,3.47
2018-12-02T07:17:34.359Z,1.23
2018-12-02T07:20:14.485Z,1.80
2018-12-02T07:22:44.935Z,0.63
2018-12-02T07:25:16.465Z,2.00
2018-12-02T07:27:44.681Z,2.30
2018-12-02T07:30:12.899Z,2.03
2018-12-02T07:32:41.115Z,1.90
2018-12-02T07:35:11.369Z,2.20
2018-12-02T07:37:40.574Z,1.30
2018-12-02T07:40:42.817Z,4.47
2018-12-02T07:43:12.036Z,1.30
2018-12-02T07:45:40.344Z,2.23
2018-12-02T07:48:08.535Z,2.00
2018-12-02T07:50:36.715Z,1.83
2018-12-02T07:53:05.092Z,1.00
2018-12-02T07:55:33.300Z,1.73
2018-12-02T07:58:01.542Z,2.13
2018-12-02T08:00:30.811Z,2.20
2018-12-02T08:02:59.022Z,1.40
2018-12-02T08:05:27.255Z,1.20
2018-12-02T08:07:55.478Z,3.87
2018-12-02T08:10:23.715Z,1.27
2018-12-02T08:12:51.937Z,1.30
2018-12-02T08:15:20.470Z,1.40
2018-12-02T08:20:49.163Z,1.63
2018-12-02T08:23:17.411Z,1.97
2018-12-02T08:25:51.804Z,3.23
2018-12-02T08:28:20.028Z,1.60
2018-12-02T08:30:49.338Z,1.23
2018-12-02T08:33:17.536Z,1.40
2018-12-02T08:35:45.739Z,1.70
2018-12-02T08:38:13.956Z,13.10
2018-12-02T08:40:46.130Z,3.33
2018-12-02T08:43:14.380Z,2.23
2018-12-02T08:45:42.623Z,1.50
2018-12-02T08:48:10.841Z,1.90
2018-12-02T08:50:41.076Z,1.17
2018-12-02T08:53:09.308Z,1.77
2018-12-02T08:55:37.540Z,1.37
2018-12-02T08:58:05.912Z,1.40
2018-12-02T09:00:35.222Z,0.80
2018-12-02T09:03:05.697Z,1.43
2018-12-02T09:05:33.894Z,0.90
2018-12-02T09:08:02.243Z,3.53
2018-12-02T09:10:31.813Z,3.80
2018-12-02T09:13:02.710Z,2.33
2018-12-02T09:15:30.955Z,1.80
2018-12-02T09:17:59.157Z,1.10
2018-12-02T09:20:29.422Z,3.53
2018-12-02T09:23:00.993Z,2.50
2018-12-02T09:25:29.188Z,1.40
2018-12-02T09:27:57.424Z,1.30
2018-12-02T09:30:27.944Z,2.47
2018-12-02T09:32:56.168Z,2.73
2018-12-02T09:35:25.422Z,2.60
2018-12-02T09:37:53.657Z,1.20
2018-12-02T09:40:21.854Z,0.50
2018-12-02T09:42:51.718Z,0.40
2018-12-02T09:45:21.928Z,0.53
2018-12-02T09:47:50.163Z,0.60
2018-12-02T09:50:18.456Z,0.50
2018-12-02T09:52:46.718Z,0.40
2018-12-02T09:55:17.177Z,0.50
2018-12-02T09:57:45.368Z,1.60
2018-12-02T10:00:16.217Z,0.80
2018-12-02T10:02:44.455Z,1.53
2018-12-02T10:05:12.801Z,0.50
2018-12-02T10:07:41.119Z,0.40
2018-12-02T10:10:15.236Z,0.50
2018-12-02T10:12:44.743Z,0.47
2018-12-02T10:15:14.254Z,1.47
2018-12-02T10:17:42.540Z,0.73
2018-12-02T10:20:12.379Z,0.57
2018-12-02T10:22:40.613Z,0.40
2018-12-02T10:25:10.453Z,1.13
2018-12-02T10:27:38.700Z,0.57
2018-12-02T10:30:12.640Z,2.20
2018-12-02T10:32:40.853Z,0.50
2018-12-02T10:35:09.108Z,4.47
2018-12-02T10:37:37.424Z,0.30
2018-12-02T10:40:09.743Z,1.20
2018-12-02T10:42:38.370Z,0.50
2018-12-02T10:45:08.845Z,0.80
2018-12-02T10:47:40.496Z,0.40
2018-12-02T10:50:12.864Z,0.53
2018-12-02T10:52:41.157Z,0.80
2018-12-02T10:56:17.571Z,0.70
2018-12-02T10:58:45.792Z,1.40
2018-12-02T11:01:16.972Z,0.80
2018-12-02T11:03:45.728Z,0.50
2018-12-02T11:06:13.970Z,0.57
2018-12-02T11:08:42.206Z,0.40
2018-12-02T11:11:10.412Z,0.40
2018-12-02T11:13:38.639Z,0.70
2018-12-02T11:16:07.556Z,1.57
2018-12-02T11:18:35.792Z,0.50
2018-12-02T11:21:04.002Z,0.60
2018-12-02T11:23:32.213Z,0.60
2018-12-02T11:26:00.432Z,0.60
2018-12-02T11:28:28.645Z,0.67
2018-12-02T11:30:56.874Z,0.60
2018-12-02T11:33:25.080Z,1.27
2018-12-02T11:35:53.296Z,1.80
2018-12-02T11:38:21.553Z,0.50
2018-12-02T11:40:49.793Z,0.57
2018-12-02T11:43:18.015Z,0.57
2018-12-02T11:45:46.242Z,0.53
2018-12-02T11:48:14.506Z,1.00
2018-12-02T11:50:42.701Z,0.50
2018-12-02T11:53:10.932Z,0.53
2018-12-02T11:55:39.155Z,0.37
2018-12-02T11:58:07.532Z,0.20
2018-12-02T12:00:38.321Z,0.50
2018-12-02T12:03:06.568Z,0.13
2018-12-02T12:05:35.191Z,0.20
2018-12-02T12:08:03.464Z,1.87
2018-12-02T12:10:31.685Z,0.83
2018-12-02T12:13:00.896Z,1.40
2018-12-02T12:15:30.723Z,0.30
2018-12-02T12:17:59.608Z,0.97
2018-12-02T12:20:32.904Z,0.40
2018-12-02T12:23:01.141Z,1.37
2018-12-02T12:25:29.419Z,1.53
2018-12-02T12:28:01.960Z,1.07
2018-12-02T12:30:31.375Z,1.77
2018-12-02T12:32:59.705Z,0.97
2018-12-02T12:35:27.997Z,0.70
2018-12-02T12:37:56.227Z,0.70
2018-12-02T12:40:37.253Z,1.07
2018-12-02T12:43:14.054Z,1.33
2018-12-02T12:45:42.283Z,1.53
2018-12-02T12:48:10.492Z,1.07
2018-12-02T12:50:38.712Z,0.77
2018-12-02T12:53:06.936Z,1.20
2018-12-02T12:55:35.168Z,2.30
2018-12-02T12:58:03.393Z,1.13
2018-12-02T13:00:32.693Z,3.73
2018-12-02T13:03:00.933Z,2.10
2018-12-02T13:05:29.194Z,1.27
2018-12-02T13:07:57.412Z,1.87
2018-12-02T13:10:26.711Z,1.17
2018-12-02T13:12:54.951Z,1.50
2018-12-02T13:15:23.820Z,1.90
2018-12-02T13:17:55.508Z,1.03
2018-12-02T13:20:25.130Z,0.73
2018-12-02T13:22:53.358Z,1.10
2018-12-02T13:25:21.626Z,1.67
2018-12-02T13:27:49.827Z,2.83
2018-12-02T13:30:19.523Z,1.50
2018-12-02T13:32:50.004Z,1.50
2018-12-02T13:35:18.308Z,1.17
2018-12-02T13:37:46.573Z,3.13
2018-12-02T13:40:22.423Z,2.03
2018-12-02T13:42:54.185Z,1.63
2018-12-02T13:45:23.797Z,1.17
2018-12-02T13:47:52.078Z,5.53
2018-12-02T13:50:20.821Z,2.47
2018-12-02T13:52:51.206Z,3.13
2018-12-02T13:55:20.789Z,2.13
2018-12-02T13:57:50.548Z,1.73
2018-12-02T14:00:19.834Z,1.73
2018-12-02T14:02:51.453Z,3.10
2018-12-02T14:05:19.723Z,1.93
2018-12-02T14:07:47.966Z,2.77
2018-12-02T14:10:16.202Z,1.50
2018-12-02T14:12:49.095Z,3.57
2018-12-02T14:15:58.826Z,2.63
2018-12-02T14:18:35.392Z,1.50
2018-12-02T14:21:09.268Z,1.53
2018-12-02T14:23:39.100Z,1.50
2018-12-02T14:26:16.043Z,1.87
2018-12-02T14:28:48.659Z,1.87
2018-12-02T14:31:18.852Z,2.20
2018-12-02T14:33:47.070Z,2.10
2018-12-02T14:36:17.777Z,1.40
2018-12-02T14:41:28.544Z,2.27
2018-12-02T14:43:56.773Z,1.60
2018-12-02T14:46:24.995Z,4.53
2018-12-02T14:48:54.284Z,4.03
2018-12-02T14:51:23.571Z,1.80
2018-12-02T14:53:56.207Z,2.67
2018-12-02T14:56:24.458Z,2.70
2018-12-02T14:58:53.833Z,1.97
2018-12-02T15:01:22.040Z,3.47
2018-12-02T15:03:50.277Z,2.57
2018-12-02T15:06:18.491Z,1.43
2018-12-02T15:08:46.697Z,1.53
2018-12-02T15:11:15.028Z,2.00
2018-12-02T15:13:43.252Z,2.90
2018-12-02T15:16:11.455Z,6.23
2018-12-02T15:18:39.648Z,3.37
2018-12-02T15:21:08.388Z,3.20
2018-12-02T15:23:36.833Z,3.77
2018-12-02T15:26:06.603Z,4.23
2018-12-02T15:28:34.841Z,7.00
2018-12-02T15:31:03.746Z,4.57
2018-12-02T15:33:34.072Z,3.87
2018-12-02T15:36:02.355Z,2.80
2018-12-02T15:38:30.536Z,4.10
2018-12-02T15:40:58.800Z,2.77
2018-12-02T15:43:27.153Z,3.70
2018-12-02T15:46:06.076Z,4.20
2018-12-02T15:48:52.922Z,3.43
2018-12-02T15:51:27.107Z,4.93
2018-12-02T15:53:55.414Z,3.40
2018-12-02T15:56:29.083Z,4.87
2018-12-02T15:59:05.912Z,3.10
2018-12-02T16:01:39.600Z,3.87
2018-12-02T16:04:18.792Z,3.00
2018-12-02T16:06:47.088Z,3.43
2018-12-02T16:09:18.693Z,3.23
2018-12-02T16:11:46.992Z,2.97
2018-12-02T16:14:15.247Z,2.50
2018-12-02T16:16:43.542Z,4.23
2018-12-02T16:19:11.807Z,3.00
2018-12-02T16:21:40.093Z,2.40
2018-12-02T16:27:13.363Z,4.10
2018-12-02T16:29:59.051Z,5.23
2018-12-02T16:32:43.331Z,8.43
2018-12-02T16:35:25.879Z,4.13
2018-12-02T16:37:59.580Z,6.77
2018-12-02T16:40:29.012Z,4.30
2018-12-02T16:42:57.815Z,5.00
2018-12-02T16:45:27.217Z,7.03
2018-12-02T16:47:56.706Z,6.37
2018-12-02T16:50:31.309Z,4.90
2018-12-02T16:53:12.567Z,5.77
2018-12-02T16:55:53.128Z,5.53
2018-12-02T17:00:31.331Z,6.47
2018-12-02T17:02:59.699Z,5.73
2018-12-02T17:05:27.994Z,6.53
2018-12-02T17:07:56.351Z,10.03
2018-12-02T17:10:24.622Z,7.20
2018-12-02T17:12:58.097Z,8.40
2018-12-02T17:15:26.381Z,9.57
2018-12-02T17:17:55.646Z,10.03
2018-12-02T17:20:33.697Z,10.00
2018-12-02T17:23:02.117Z,8.63
2018-12-02T17:25:30.392Z,8.37
2018-12-02T17:28:00.854Z,12.10
2018-12-02T17:33:22.290Z,11.10
2018-12-02T17:35:50.608Z,11.20
2018-12-02T17:38:19.527Z,14.53
2018-12-02T17:40:48.469Z,14.20
2018-12-02T17:43:16.752Z,14.60
2018-12-02T17:45:45.010Z,14.37
2018-12-02T17:48:13.416Z,10.77
2018-12-02T17:50:42.748Z,13.60
2018-12-02T17:53:12.790Z,15.80
2018-12-02T17:55:41.081Z,12.73
2018-12-02T17:58:09.360Z,10.27
2018-12-02T18:00:37.724Z,12.50
2018-12-02T18:03:07.754Z,11.37
2018-12-02T18:05:38.964Z,12.90
2018-12-02T18:08:07.311Z,14.57
2018-12-02T18:10:35.525Z,11.20
2018-12-02T18:13:07.503Z,10.53
2018-12-02T18:15:35.723Z,11.60
2018-12-02T18:18:08.323Z,13.57
2018-12-02T18:20:36.551Z,9.10
2018-12-02T18:23:04.812Z,9.70
2018-12-02T18:25:33.109Z,9.30
2018-12-02T18:28:06.612Z,10.30
2018-12-02T18:30:45.756Z,6.33
2018-12-02T18:33:19.346Z,6.13
2018-12-02T18:36:05.620Z,6.37
2018-12-02T18:38:46.272Z,5.37
2018-12-02T18:41:17.741Z,9.00
2018-12-02T18:43:45.976Z,6.33
2018-12-02T18:46:17.142Z,10.77
2018-12-02T18:48:45.371Z,9.30
2018-12-02T18:51:13.653Z,10.63
2018-12-02T18:53:49.966Z,13.40
2018-12-02T18:56:18.209Z,11.33
2018-12-02T18:58:54.693Z,11.50
2018-12-02T19:01:22.972Z,13.97
2018-12-02T19:03:51.555Z,14.83
2018-12-02T19:06:20.866Z,10.07
2018-12-02T19:08:53.227Z,12.80
2018-12-02T19:11:25.098Z,11.77
2018-12-02T19:13:53.328Z,9.77
2018-12-02T19:16:30.062Z,10.63
2018-12-02T19:18:58.298Z,8.67
2018-12-02T19:21:28.246Z,9.13
2018-12-02T19:23:57.724Z,10.57
2018-12-02T19:26:26.072Z,11.13
2018-12-02T19:28:54.427Z,14.80
2018-12-02T19:31:27.509Z,14.17
2018-12-02T19:33:58.189Z,18.60
2018-12-02T19:36:35.629Z,17.70
2018-12-02T19:39:04.623Z,19.27
2018-12-02T19:41:32.852Z,17.67
2018-12-02T19:44:01.119Z,19.80
2018-12-02T19:46:29.355Z,19.93
2018-12-02T19:48:57.600Z,19.53
2018-12-02T19:51:29.469Z,30.80
2018-12-02T19:53:57.736Z,26.93
2018-12-02T19:56:25.983Z,24.00
2018-12-02T19:58:55.421Z,22.87
2018-12-02T20:01:23.672Z,22.77
2018-12-02T20:03:51.923Z,14.97
2018-12-02T20:06:24.372Z,13.47
2018-12-02T20:08:52.653Z,16.90
2018-12-02T20:11:20.917Z,16.90
2018-12-02T20:13:55.352Z,12.80
2018-12-02T20:16:23.600Z,7.50
2018-12-02T20:18:53.951Z,9.83
2018-12-02T20:21:23.635Z,9.33
2018-12-02T20:24:02.594Z,8.37
2018-12-02T20:26:30.824Z,8.60
2018-12-02T20:28:59.192Z,9.30
2018-12-02T20:31:28.804Z,6.97
2018-12-02T20:34:04.136Z,8.07
2018-12-02T20:36:35.532Z,12.87
2018-12-02T20:39:04.151Z,8.37
2018-12-02T20:41:32.392Z,8.63
2018-12-02T20:44:00.664Z,10.07
2018-12-02T20:46:29.174Z,7.13
2018-12-02T20:49:07.080Z,8.13
2018-12-02T20:51:41.366Z,9.93
2018-12-02T20:54:09.611Z,9.33
2018-12-02T20:56:37.909Z,9.43
2018-12-02T20:59:09.460Z,12.33
2018-12-02T21:01:37.709Z,8.93
2018-12-02T21:04:10.286Z,11.03
2018-12-02T21:06:38.942Z,10.13
2018-12-02T21:09:07.623Z,9.90
2018-12-02T21:11:40.532Z,8.03
2018-12-02T21:14:07.918Z,9.50
2018-12-02T21:16:53.439Z,7.53
2018-12-02T21:19:21.708Z,8.43
2018-12-02T21:21:54.833Z,7.33
2018-12-02T21:24:23.043Z,6.47
2018-12-02T21:26:51.275Z,7.57
2018-12-02T21:29:19.477Z,9.03
2018-12-02T21:31:47.704Z,9.53
2018-12-02T21:34:15.917Z,9.13
2018-12-02T21:36:44.155Z,9.63
2018-12-02T21:39:12.383Z,8.30
2018-12-02T21:41:40.608Z,8.93
2018-12-02T21:44:08.837Z,12.50
2018-12-02T21:46:37.029Z,10.53
2018-12-02T21:49:06.128Z,11.63
2018-12-02T21:51:34.362Z,15.27
2018-12-02T21:54:06.750Z,10.77
2018-12-02T21:56:34.978Z,11.50
2018-12-02T21:59:03.340Z,12.80
2018-12-02T22:01:43.948Z,12.00
2018-12-02T22:04:12.183Z,10.17
2018-12-02T22:06:40.443Z,12.20
2018-12-02T22:09:11.883Z,10.07
2018-12-02T22:11:40.102Z,9.10
2018-12-02T22:14:08.348Z,7.97
2018-12-02T22:16:36.553Z,7.97
2018-12-02T22:19:05.197Z,8.87
2018-12-02T22:21:33.404Z,7.63
2018-12-02T22:24:01.753Z,10.70
2018-12-02T22:26:29.954Z,8.97
2018-12-02T22:28:58.185Z,6.57
2018-12-02T22:31:26.405Z,12.30
2018-12-02T22:33:54.644Z,11.57
2018-12-02T22:36:22.865Z,12.13
2018-12-02T22:38:51.073Z,11.73
2018-12-02T22:41:19.290Z,12.57
2018-12-02T22:43:47.505Z,11.00
2018-12-02T22:46:25.637Z,9.57
2018-12-02T22:48:53.857Z,12.47
2018-12-02T22:51:22.076Z,9.53
2018-12-02T22:53:50.304Z,9.53
2018-12-02T22:56:18.543Z,9.63
2018-12-02T22:58:46.800Z,11.47
2018-12-02T23:01:20.208Z,9.27
2018-12-02T23:03:48.416Z,10.83
2018-12-02T23:06:16.656Z,12.03
2018-12-02T23:09:03.023Z,11.27
2018-12-02T23:11:31.267Z,19.17
2018-12-02T23:13:59.494Z,17.27
2018-12-02T23:16:27.728Z,18.17
2018-12-02T23:18:56.016Z,16.37
2018-12-02T23:21:34.173Z,14.73
2018-12-02T23:24:02.429Z,13.53
2018-12-02T23:26:30.690Z,12.17
2018-12-02T23:28:58.891Z,11.63
2018-12-02T23:31:27.119Z,10.40
2018-12-02T23:33:55.378Z,10.77
2018-12-02T23:36:23.620Z,10.43
2018-12-02T23:38:51.855Z,7.77
2018-12-02T23:41:20.085Z,5.63
2018-12-02T23:43:48.329Z,7.93
2018-12-02T23:46:16.556Z,10.00
2018-12-02T23:48:44.793Z,8.77
2018-12-02T23:51:13.049Z,10.67
2018-12-02T23:53:41.278Z,10.97
2018-12-02T23:56:09.517Z,10.73
2018-12-02T23:58:37.731Z,9.60
